sensor_id;sensor_type;location;lat;lon;timestamp;temperature;humidity
3860;DHT22;1945;52.036;8.614;2024-03-02T00:01:23;6.80;1.00
3860;DHT22;1945;52.036;8.614;2024-03-02T00:03:50;6.80;1.00
3860;DHT22;1945;52.036;8.614;2024-03-02T00:06:20;6.80;1.00
3860;DHT22;1945;52.036;8.614;2024-03-02T00:08:48;6.90;1.00
3860;DHT22;1945;52.036;8.614;2024-03-02T00:11:15;6.90;1.00
3860;DHT22;1945;52.036;8.614;2024-03-02T00:13:44;6.90;99.90
3860;DHT22;1945;52.036;8.614;2024-03-02T00:16:11;6.90;1.00
3860;DHT22;1945;52.036;8.614;2024-03-02T00:18:38;6.80;1.00
3860;DHT22;1945;52.036;8.614;2024-03-02T00:21:06;6.90;1.00
3860;DHT22;1945;52.036;8.614;2024-03-02T00:23:34;7.30;1.00
3860;DHT22;1945;52.036;8.614;2024-03-02T00:26:03;6.90;1.00
3860;DHT22;1945;52.036;8.614;2024-03-02T00:28:31;6.90;1.00
3860;DHT22;1945;52.036;8.614;2024-03-02T00:31:01;6.90;1.00
3860;DHT22;1945;52.036;8.614;2024-03-02T00:33:30;6.80;1.00
3860;DHT22;1945;52.036;8.614;2024-03-02T00:35:59;6.80;1.00
3860;DHT22;1945;52.036;8.614;2024-03-02T00:38:26;6.80;1.00
3860;DHT22;1945;52.036;8.614;2024-03-02T00:40:54;6.90;1.00
3860;DHT22;1945;52.036;8.614;2024-03-02T00:43:41;6.80;1.00
3860;DHT22;1945;52.036;8.614;2024-03-02T00:46:08;6.80;1.00
3860;DHT22;1945;52.036;8.614;2024-03-02T00:48:34;6.70;1.00
3860;DHT22;1945;52.036;8.614;2024-03-02T00:51:02;6.70;1.00
3860;DHT22;1945;52.036;8.614;2024-03-02T00:53:30;6.70;1.00
3860;DHT22;1945;52.036;8.614;2024-03-02T00:55:57;6.70;1.00
3860;DHT22;1945;52.036;8.614;2024-03-02T00:58:23;6.60;1.00
3860;DHT22;1945;52.036;8.614;2024-03-02T01:00:52;6.70;1.00
3860;DHT22;1945;52.036;8.614;2024-03-02T01:03:18;6.60;1.00
3860;DHT22;1945;52.036;8.614;2024-03-02T01:05:45;6.60;1.00
3860;DHT22;1945;52.036;8.614;2024-03-02T01:08:12;6.60;1.00
3860;DHT22;1945;52.036;8.614;2024-03-02T01:10:38;6.60;1.00
3860;DHT22;1945;52.036;8.614;2024-03-02T01:13:05;6.60;1.00
3860;DHT22;1945;52.036;8.614;2024-03-02T01:15:32;6.50;1.00
3860;DHT22;1945;52.036;8.614;2024-03-02T01:18:01;6.50;1.00
3860;DHT22;1945;52.036;8.614;2024-03-02T01:20:27;6.50;1.00
3860;DHT22;1945;52.036;8.614;2024-03-02T01:22:54;6.50;1.00
3860;DHT22;1945;52.036;8.614;2024-03-02T01:25:20;6.50;1.00
3860;DHT22;1945;52.036;8.614;2024-03-02T01:27:47;6.40;1.00
3860;DHT22;1945;52.036;8.614;2024-03-02T01:30:14;6.40;1.00
3860;DHT22;1945;52.036;8.614;2024-03-02T01:32:41;6.50;1.00
3860;DHT22;1945;52.036;8.614;2024-03-02T01:35:09;6.40;1.00
3860;DHT22;1945;52.036;8.614;2024-03-02T01:37:35;6.50;1.00
3860;DHT22;1945;52.036;8.614;2024-03-02T01:40:02;6.80;1.00
3860;DHT22;1945;52.036;8.614;2024-03-02T01:42:33;6.40;1.00
3860;DHT22;1945;52.036;8.614;2024-03-02T01:45:00;6.40;1.00
3860;DHT22;1945;52.036;8.614;2024-03-02T01:47:27;6.30;1.00
3860;DHT22;1945;52.036;8.614;2024-03-02T01:49:54;6.30;1.00
3860;DHT22;1945;52.036;8.614;2024-03-02T01:52:22;6.30;1.00
3860;DHT22;1945;52.036;8.614;2024-03-02T01:54:48;6.30;1.00
3860;DHT22;1945;52.036;8.614;2024-03-02T01:57:15;6.30;1.00
3860;DHT22;1945;52.036;8.614;2024-03-02T01:59:42;6.30;1.00
3860;DHT22;1945;52.036;8.614;2024-03-02T02:02:09;6.40;1.00
3860;DHT22;1945;52.036;8.614;2024-03-02T02:04:36;6.40;1.00
3860;DHT22;1945;52.036;8.614;2024-03-02T02:07:03;6.30;1.00
3860;DHT22;1945;52.036;8.614;2024-03-02T02:09:31;6.30;1.00
3860;DHT22;1945;52.036;8.614;2024-03-02T02:11:57;6.30;1.00
3860;DHT22;1945;52.036;8.614;2024-03-02T02:14:25;6.20;1.00
3860;DHT22;1945;52.036;8.614;2024-03-02T02:16:51;6.20;1.00
3860;DHT22;1945;52.036;8.614;2024-03-02T02:19:18;6.20;1.00
3860;DHT22;1945;52.036;8.614;2024-03-02T02:21:46;6.20;1.00
3860;DHT22;1945;52.036;8.614;2024-03-02T02:24:13;6.30;1.00
3860;DHT22;1945;52.036;8.614;2024-03-02T02:26:39;6.20;1.00
3860;DHT22;1945;52.036;8.614;2024-03-02T02:29:06;6.20;1.00
3860;DHT22;1945;52.036;8.614;2024-03-02T02:31:37;6.20;1.00
3860;DHT22;1945;52.036;8.614;2024-03-02T02:34:04;6.30;1.00
3860;DHT22;1945;52.036;8.614;2024-03-02T02:36:31;6.30;1.00
3860;DHT22;1945;52.036;8.614;2024-03-02T02:39:02;6.30;1.00
3860;DHT22;1945;52.036;8.614;2024-03-02T02:41:30;6.30;1.00
3860;DHT22;1945;52.036;8.614;2024-03-02T02:43:56;6.40;1.00
3860;DHT22;1945;52.036;8.614;2024-03-02T02:46:23;6.40;1.00
3860;DHT22;1945;52.036;8.614;2024-03-02T02:48:50;6.40;1.00
3860;DHT22;1945;52.036;8.614;2024-03-02T02:51:18;6.40;1.00
3860;DHT22;1945;52.036;8.614;2024-03-02T02:53:45;6.50;1.00
3860;DHT22;1945;52.036;8.614;2024-03-02T02:56:13;6.40;1.00
3860;DHT22;1945;52.036;8.614;2024-03-02T02:58:40;6.40;1.00
3860;DHT22;1945;52.036;8.614;2024-03-02T03:01:06;6.50;1.00
3860;DHT22;1945;52.036;8.614;2024-03-02T03:03:33;6.40;1.00
3860;DHT22;1945;52.036;8.614;2024-03-02T03:06:00;6.40;1.00
3860;DHT22;1945;52.036;8.614;2024-03-02T03:08:27;6.40;1.00
3860;DHT22;1945;52.036;8.614;2024-03-02T03:10:54;6.50;1.00
3860;DHT22;1945;52.036;8.614;2024-03-02T03:13:22;6.50;1.00
3860;DHT22;1945;52.036;8.614;2024-03-02T03:15:49;6.50;1.00
3860;DHT22;1945;52.036;8.614;2024-03-02T03:18:15;6.40;1.00
3860;DHT22;1945;52.036;8.614;2024-03-02T03:20:42;6.50;1.00
3860;DHT22;1945;52.036;8.614;2024-03-02T03:23:09;6.50;1.00
3860;DHT22;1945;52.036;8.614;2024-03-02T03:25:40;6.50;1.00
3860;DHT22;1945;52.036;8.614;2024-03-02T03:28:07;6.40;1.00
3860;DHT22;1945;52.036;8.614;2024-03-02T03:30:36;6.40;1.00
3860;DHT22;1945;52.036;8.614;2024-03-02T03:33:03;6.40;1.00
3860;DHT22;1945;52.036;8.614;2024-03-02T03:35:31;6.30;1.00
3860;DHT22;1945;52.036;8.614;2024-03-02T03:37:58;6.30;1.00
3860;DHT22;1945;52.036;8.614;2024-03-02T03:40:25;6.30;1.00
3860;DHT22;1945;52.036;8.614;2024-03-02T03:42:51;6.30;1.00
3860;DHT22;1945;52.036;8.614;2024-03-02T03:45:18;6.30;1.00
3860;DHT22;1945;52.036;8.614;2024-03-02T03:47:46;6.40;1.00
3860;DHT22;1945;52.036;8.614;2024-03-02T03:50:13;6.40;1.00
3860;DHT22;1945;52.036;8.614;2024-03-02T03:52:40;6.40;1.00
3860;DHT22;1945;52.036;8.614;2024-03-02T03:55:07;6.30;1.00
3860;DHT22;1945;52.036;8.614;2024-03-02T03:57:34;6.20;1.00
3860;DHT22;1945;52.036;8.614;2024-03-02T04:00:00;6.30;1.00
3860;DHT22;1945;52.036;8.614;2024-03-02T04:02:27;6.20;1.00
3860;DHT22;1945;52.036;8.614;2024-03-02T04:04:55;6.20;1.00
3860;DHT22;1945;52.036;8.614;2024-03-02T04:07:21;6.20;1.00
3860;DHT22;1945;52.036;8.614;2024-03-02T04:09:48;6.20;1.00
3860;DHT22;1945;52.036;8.614;2024-03-02T04:12:15;6.10;1.00
3860;DHT22;1945;52.036;8.614;2024-03-02T04:14:41;6.00;1.00
3860;DHT22;1945;52.036;8.614;2024-03-02T04:17:08;6.00;1.00
3860;DHT22;1945;52.036;8.614;2024-03-02T04:19:35;5.90;1.00
3860;DHT22;1945;52.036;8.614;2024-03-02T04:22:04;5.90;1.00
3860;DHT22;1945;52.036;8.614;2024-03-02T04:24:30;5.90;1.00
3860;DHT22;1945;52.036;8.614;2024-03-02T04:26:57;6.00;1.00
3860;DHT22;1945;52.036;8.614;2024-03-02T04:29:23;5.90;1.00
3860;DHT22;1945;52.036;8.614;2024-03-02T04:31:50;6.00;1.00
3860;DHT22;1945;52.036;8.614;2024-03-02T04:34:17;6.00;1.00
3860;DHT22;1945;52.036;8.614;2024-03-02T04:36:43;6.00;1.00
3860;DHT22;1945;52.036;8.614;2024-03-02T04:39:11;6.10;1.00
3860;DHT22;1945;52.036;8.614;2024-03-02T04:41:38;6.20;1.00
3860;DHT22;1945;52.036;8.614;2024-03-02T04:44:05;6.30;1.00
3860;DHT22;1945;52.036;8.614;2024-03-02T04:46:33;6.30;1.00
3860;DHT22;1945;52.036;8.614;2024-03-02T04:49:00;6.30;1.00
3860;DHT22;1945;52.036;8.614;2024-03-02T04:51:26;6.40;1.00
3860;DHT22;1945;52.036;8.614;2024-03-02T04:53:53;6.30;1.00
3860;DHT22;1945;52.036;8.614;2024-03-02T04:56:21;6.30;1.00
3860;DHT22;1945;52.036;8.614;2024-03-02T04:59:05;6.40;1.00
3860;DHT22;1945;52.036;8.614;2024-03-02T05:01:32;6.40;1.00
3860;DHT22;1945;52.036;8.614;2024-03-02T05:03:59;6.30;1.00
3860;DHT22;1945;52.036;8.614;2024-03-02T05:06:26;6.30;1.00
3860;DHT22;1945;52.036;8.614;2024-03-02T05:08:53;6.20;1.00
3860;DHT22;1945;52.036;8.614;2024-03-02T05:11:20;6.30;1.00
3860;DHT22;1945;52.036;8.614;2024-03-02T05:14:18;6.30;1.00
3860;DHT22;1945;52.036;8.614;2024-03-02T05:16:45;6.20;1.00
3860;DHT22;1945;52.036;8.614;2024-03-02T05:19:11;6.20;1.00
3860;DHT22;1945;52.036;8.614;2024-03-02T05:21:38;6.20;1.00
3860;DHT22;1945;52.036;8.614;2024-03-02T05:24:05;6.20;1.00
3860;DHT22;1945;52.036;8.614;2024-03-02T05:26:33;6.20;1.00
3860;DHT22;1945;52.036;8.614;2024-03-02T05:29:00;6.20;1.00
3860;DHT22;1945;52.036;8.614;2024-03-02T05:31:26;6.10;1.00
3860;DHT22;1945;52.036;8.614;2024-03-02T05:33:53;6.00;1.00
3860;DHT22;1945;52.036;8.614;2024-03-02T05:36:20;6.10;1.00
3860;DHT22;1945;52.036;8.614;2024-03-02T05:38:47;6.10;1.00
3860;DHT22;1945;52.036;8.614;2024-03-02T05:41:13;6.40;1.00
3860;DHT22;1945;52.036;8.614;2024-03-02T05:43:41;6.00;1.00
3860;DHT22;1945;52.036;8.614;2024-03-02T05:46:08;6.00;1.00
3860;DHT22;1945;52.036;8.614;2024-03-02T05:48:34;6.10;1.00
3860;DHT22;1945;52.036;8.614;2024-03-02T05:51:01;6.00;1.00
3860;DHT22;1945;52.036;8.614;2024-03-02T05:53:28;6.00;1.00
3860;DHT22;1945;52.036;8.614;2024-03-02T05:55:55;6.00;1.00
3860;DHT22;1945;52.036;8.614;2024-03-02T05:58:22;6.00;1.00
3860;DHT22;1945;52.036;8.614;2024-03-02T06:01:00;5.90;1.00
3860;DHT22;1945;52.036;8.614;2024-03-02T06:03:27;5.90;1.00
3860;DHT22;1945;52.036;8.614;2024-03-02T06:05:54;6.00;1.00
3860;DHT22;1945;52.036;8.614;2024-03-02T06:08:21;5.90;1.00
3860;DHT22;1945;52.036;8.614;2024-03-02T06:10:48;6.00;1.00
3860;DHT22;1945;52.036;8.614;2024-03-02T06:13:14;6.00;1.00
3860;DHT22;1945;52.036;8.614;2024-03-02T06:15:41;6.00;1.00
3860;DHT22;1945;52.036;8.614;2024-03-02T06:18:09;6.10;1.00
3860;DHT22;1945;52.036;8.614;2024-03-02T06:20:36;6.00;1.00
3860;DHT22;1945;52.036;8.614;2024-03-02T06:23:03;6.00;1.00
3860;DHT22;1945;52.036;8.614;2024-03-02T06:25:30;6.10;1.00
3860;DHT22;1945;52.036;8.614;2024-03-02T06:27:57;6.10;1.00
3860;DHT22;1945;52.036;8.614;2024-03-02T06:30:24;6.10;1.00
3860;DHT22;1945;52.036;8.614;2024-03-02T06:32:51;6.20;1.00
3860;DHT22;1945;52.036;8.614;2024-03-02T06:35:19;6.10;1.00
3860;DHT22;1945;52.036;8.614;2024-03-02T06:37:45;6.20;1.00
3860;DHT22;1945;52.036;8.614;2024-03-02T06:40:12;6.10;1.00
3860;DHT22;1945;52.036;8.614;2024-03-02T06:42:39;5.90;1.00
3860;DHT22;1945;52.036;8.614;2024-03-02T06:45:06;6.00;1.00
3860;DHT22;1945;52.036;8.614;2024-03-02T06:47:33;6.20;1.00
3860;DHT22;1945;52.036;8.614;2024-03-02T06:49:59;6.30;1.00
3860;DHT22;1945;52.036;8.614;2024-03-02T06:52:27;6.40;1.00
3860;DHT22;1945;52.036;8.614;2024-03-02T06:54:54;6.50;1.00
3860;DHT22;1945;52.036;8.614;2024-03-02T06:57:20;6.60;1.00
3860;DHT22;1945;52.036;8.614;2024-03-02T06:59:47;6.70;1.00
3860;DHT22;1945;52.036;8.614;2024-03-02T07:02:15;6.70;1.00
3860;DHT22;1945;52.036;8.614;2024-03-02T07:04:42;6.60;1.00
3860;DHT22;1945;52.036;8.614;2024-03-02T07:07:10;6.60;1.00
3860;DHT22;1945;52.036;8.614;2024-03-02T07:09:38;6.60;1.00
3860;DHT22;1945;52.036;8.614;2024-03-02T07:12:05;6.60;1.00
3860;DHT22;1945;52.036;8.614;2024-03-02T07:14:32;6.70;1.00
3860;DHT22;1945;52.036;8.614;2024-03-02T07:17:16;6.60;1.00
3860;DHT22;1945;52.036;8.614;2024-03-02T07:19:43;6.70;1.00
3860;DHT22;1945;52.036;8.614;2024-03-02T07:22:09;6.70;1.00
3860;DHT22;1945;52.036;8.614;2024-03-02T07:24:40;6.70;1.00
3860;DHT22;1945;52.036;8.614;2024-03-02T07:27:08;6.80;1.00
3860;DHT22;1945;52.036;8.614;2024-03-02T07:29:34;6.80;1.00
3860;DHT22;1945;52.036;8.614;2024-03-02T07:32:01;6.80;1.00
3860;DHT22;1945;52.036;8.614;2024-03-02T07:34:28;6.80;1.00
3860;DHT22;1945;52.036;8.614;2024-03-02T07:36:55;6.90;1.00
3860;DHT22;1945;52.036;8.614;2024-03-02T07:39:22;6.90;1.00
3860;DHT22;1945;52.036;8.614;2024-03-02T07:41:50;7.00;1.00
3860;DHT22;1945;52.036;8.614;2024-03-02T07:44:17;7.00;1.00
3860;DHT22;1945;52.036;8.614;2024-03-02T07:46:45;7.00;1.00
3860;DHT22;1945;52.036;8.614;2024-03-02T07:49:13;7.10;1.00
3860;DHT22;1945;52.036;8.614;2024-03-02T07:51:40;7.10;1.00
3860;DHT22;1945;52.036;8.614;2024-03-02T07:54:06;7.30;1.00
3860;DHT22;1945;52.036;8.614;2024-03-02T07:56:33;7.40;1.00
3860;DHT22;1945;52.036;8.614;2024-03-02T07:59:02;7.50;1.00
3860;DHT22;1945;52.036;8.614;2024-03-02T08:01:29;7.70;99.90
3860;DHT22;1945;52.036;8.614;2024-03-02T08:03:56;7.70;99.90
3860;DHT22;1945;52.036;8.614;2024-03-02T08:06:24;7.90;99.90
3860;DHT22;1945;52.036;8.614;2024-03-02T08:08:53;8.10;99.90
3860;DHT22;1945;52.036;8.614;2024-03-02T08:11:19;8.30;99.90
3860;DHT22;1945;52.036;8.614;2024-03-02T08:13:46;8.50;99.90
3860;DHT22;1945;52.036;8.614;2024-03-02T08:16:14;8.70;99.90
3860;DHT22;1945;52.036;8.614;2024-03-02T08:18:41;8.90;99.90
3860;DHT22;1945;52.036;8.614;2024-03-02T08:21:08;9.00;99.90
3860;DHT22;1945;52.036;8.614;2024-03-02T08:23:35;9.20;99.90
3860;DHT22;1945;52.036;8.614;2024-03-02T08:26:03;9.40;99.90
3860;DHT22;1945;52.036;8.614;2024-03-02T08:28:29;9.50;99.90
3860;DHT22;1945;52.036;8.614;2024-03-02T08:30:56;9.60;99.90
3860;DHT22;1945;52.036;8.614;2024-03-02T08:33:24;9.60;90.20
3860;DHT22;1945;52.036;8.614;2024-03-02T08:35:51;9.80;99.90
3860;DHT22;1945;52.036;8.614;2024-03-02T08:38:18;9.80;55.00
3860;DHT22;1945;52.036;8.614;2024-03-02T08:40:45;9.90;58.50
3860;DHT22;1945;52.036;8.614;2024-03-02T08:43:11;10.00;52.50
3860;DHT22;1945;52.036;8.614;2024-03-02T08:45:38;10.10;38.20
3860;DHT22;1945;52.036;8.614;2024-03-02T08:48:06;10.20;46.00
3860;DHT22;1945;52.036;8.614;2024-03-02T08:50:35;10.30;42.50
3860;DHT22;1945;52.036;8.614;2024-03-02T08:53:02;10.50;29.90
3860;DHT22;1945;52.036;8.614;2024-03-02T08:55:29;10.40;17.40
3860;DHT22;1945;52.036;8.614;2024-03-02T08:57:56;10.40;1.00
3860;DHT22;1945;52.036;8.614;2024-03-02T09:00:23;10.40;1.00
3860;DHT22;1945;52.036;8.614;2024-03-02T09:02:50;10.40;1.00
3860;DHT22;1945;52.036;8.614;2024-03-02T09:05:17;10.40;1.00
3860;DHT22;1945;52.036;8.614;2024-03-02T09:07:46;10.50;1.00
3860;DHT22;1945;52.036;8.614;2024-03-02T09:10:12;10.60;1.00
3860;DHT22;1945;52.036;8.614;2024-03-02T09:12:39;10.60;1.00
3860;DHT22;1945;52.036;8.614;2024-03-02T09:15:07;10.80;1.00
3860;DHT22;1945;52.036;8.614;2024-03-02T09:17:34;10.80;1.00
3860;DHT22;1945;52.036;8.614;2024-03-02T09:20:00;10.90;1.00
3860;DHT22;1945;52.036;8.614;2024-03-02T09:22:29;11.00;1.00
3860;DHT22;1945;52.036;8.614;2024-03-02T09:24:58;11.00;1.00
3860;DHT22;1945;52.036;8.614;2024-03-02T09:27:25;11.00;1.00
3860;DHT22;1945;52.036;8.614;2024-03-02T09:29:58;11.10;1.00
3860;DHT22;1945;52.036;8.614;2024-03-02T09:32:24;11.40;1.00
3860;DHT22;1945;52.036;8.614;2024-03-02T09:34:51;11.30;1.00
3860;DHT22;1945;52.036;8.614;2024-03-02T09:37:18;11.30;1.00
3860;DHT22;1945;52.036;8.614;2024-03-02T09:39:45;11.30;1.00
3860;DHT22;1945;52.036;8.614;2024-03-02T09:42:14;11.30;1.00
3860;DHT22;1945;52.036;8.614;2024-03-02T09:44:41;11.30;1.00
3860;DHT22;1945;52.036;8.614;2024-03-02T09:47:08;11.30;1.00
3860;DHT22;1945;52.036;8.614;2024-03-02T09:49:35;11.30;1.00
3860;DHT22;1945;52.036;8.614;2024-03-02T09:52:03;11.30;1.00
3860;DHT22;1945;52.036;8.614;2024-03-02T09:54:31;11.30;1.00
3860;DHT22;1945;52.036;8.614;2024-03-02T09:56:57;11.30;1.00
3860;DHT22;1945;52.036;8.614;2024-03-02T09:59:26;11.40;1.00
3860;DHT22;1945;52.036;8.614;2024-03-02T10:01:57;11.20;1.00
3860;DHT22;1945;52.036;8.614;2024-03-02T10:04:25;11.50;1.00
3860;DHT22;1945;52.036;8.614;2024-03-02T10:07:09;11.50;1.00
3860;DHT22;1945;52.036;8.614;2024-03-02T10:09:37;11.50;1.00
3860;DHT22;1945;52.036;8.614;2024-03-02T10:12:04;11.60;1.00
3860;DHT22;1945;52.036;8.614;2024-03-02T10:14:33;11.60;1.00
3860;DHT22;1945;52.036;8.614;2024-03-02T10:17:03;11.70;1.00
3860;DHT22;1945;52.036;8.614;2024-03-02T10:19:30;11.70;1.00
3860;DHT22;1945;52.036;8.614;2024-03-02T10:21:59;11.80;1.00
3860;DHT22;1945;52.036;8.614;2024-03-02T10:24:25;11.80;1.00
3860;DHT22;1945;52.036;8.614;2024-03-02T10:26:52;11.80;1.00
3860;DHT22;1945;52.036;8.614;2024-03-02T10:29:19;11.80;1.00
3860;DHT22;1945;52.036;8.614;2024-03-02T10:31:48;11.90;1.00
3860;DHT22;1945;52.036;8.614;2024-03-02T10:34:14;11.90;1.00
3860;DHT22;1945;52.036;8.614;2024-03-02T10:36:43;12.00;1.00
3860;DHT22;1945;52.036;8.614;2024-03-02T10:39:13;12.00;1.00
3860;DHT22;1945;52.036;8.614;2024-03-02T10:41:40;11.90;1.00
3860;DHT22;1945;52.036;8.614;2024-03-02T10:44:08;12.00;1.00
3860;DHT22;1945;52.036;8.614;2024-03-02T10:46:36;12.10;1.00
3860;DHT22;1945;52.036;8.614;2024-03-02T10:49:05;12.00;1.00
3860;DHT22;1945;52.036;8.614;2024-03-02T10:51:34;12.00;1.00
3860;DHT22;1945;52.036;8.614;2024-03-02T10:54:02;12.00;1.00
3860;DHT22;1945;52.036;8.614;2024-03-02T10:56:30;12.10;1.00
3860;DHT22;1945;52.036;8.614;2024-03-02T10:59:02;12.10;1.00
3860;DHT22;1945;52.036;8.614;2024-03-02T11:01:31;12.20;1.00
3860;DHT22;1945;52.036;8.614;2024-03-02T11:03:59;12.10;1.00
3860;DHT22;1945;52.036;8.614;2024-03-02T11:06:30;12.10;1.00
3860;DHT22;1945;52.036;8.614;2024-03-02T11:09:00;12.20;1.00
3860;DHT22;1945;52.036;8.614;2024-03-02T11:11:32;12.20;1.00
3860;DHT22;1945;52.036;8.614;2024-03-02T11:14:04;12.20;1.00
3860;DHT22;1945;52.036;8.614;2024-03-02T11:16:34;12.20;1.00
3860;DHT22;1945;52.036;8.614;2024-03-02T11:19:03;12.30;1.00
3860;DHT22;1945;52.036;8.614;2024-03-02T11:21:32;12.30;1.00
3860;DHT22;1945;52.036;8.614;2024-03-02T11:23:59;12.30;1.00
3860;DHT22;1945;52.036;8.614;2024-03-02T11:26:27;12.20;1.00
3860;DHT22;1945;52.036;8.614;2024-03-02T11:28:54;12.40;1.00
3860;DHT22;1945;52.036;8.614;2024-03-02T11:31:22;12.40;1.00
3860;DHT22;1945;52.036;8.614;2024-03-02T11:33:49;12.50;99.90
3860;DHT22;1945;52.036;8.614;2024-03-02T11:36:15;12.50;99.90
3860;DHT22;1945;52.036;8.614;2024-03-02T11:38:46;12.40;99.90
3860;DHT22;1945;52.036;8.614;2024-03-02T11:41:13;12.40;99.90
3860;DHT22;1945;52.036;8.614;2024-03-02T11:43:40;12.40;99.90
3860;DHT22;1945;52.036;8.614;2024-03-02T11:46:10;12.50;99.90
3860;DHT22;1945;52.036;8.614;2024-03-02T11:48:39;12.50;99.90
3860;DHT22;1945;52.036;8.614;2024-03-02T11:51:06;12.50;99.90
3860;DHT22;1945;52.036;8.614;2024-03-02T11:53:33;12.50;99.90
3860;DHT22;1945;52.036;8.614;2024-03-02T11:56:03;12.50;99.90
3860;DHT22;1945;52.036;8.614;2024-03-02T11:58:36;12.50;99.90
3860;DHT22;1945;52.036;8.614;2024-03-02T12:01:03;12.50;99.90
3860;DHT22;1945;52.036;8.614;2024-03-02T12:03:32;12.60;99.90
3860;DHT22;1945;52.036;8.614;2024-03-02T12:06:00;12.60;99.90
3860;DHT22;1945;52.036;8.614;2024-03-02T12:08:27;12.70;99.90
3860;DHT22;1945;52.036;8.614;2024-03-02T12:10:58;12.60;99.90
3860;DHT22;1945;52.036;8.614;2024-03-02T12:13:29;12.60;99.90
3860;DHT22;1945;52.036;8.614;2024-03-02T12:15:56;12.60;99.90
3860;DHT22;1945;52.036;8.614;2024-03-02T12:18:23;12.60;99.90
3860;DHT22;1945;52.036;8.614;2024-03-02T12:20:51;12.60;99.90
3860;DHT22;1945;52.036;8.614;2024-03-02T12:23:21;12.80;99.90
3860;DHT22;1945;52.036;8.614;2024-03-02T12:25:48;12.90;99.90
3860;DHT22;1945;52.036;8.614;2024-03-02T12:28:15;12.90;99.90
3860;DHT22;1945;52.036;8.614;2024-03-02T12:30:44;13.00;99.90
3860;DHT22;1945;52.036;8.614;2024-03-02T12:33:13;13.00;99.90
3860;DHT22;1945;52.036;8.614;2024-03-02T12:35:40;13.00;99.90
3860;DHT22;1945;52.036;8.614;2024-03-02T12:38:08;13.20;99.90
3860;DHT22;1945;52.036;8.614;2024-03-02T12:40:34;13.20;99.90
3860;DHT22;1945;52.036;8.614;2024-03-02T12:43:02;13.20;99.90
3860;DHT22;1945;52.036;8.614;2024-03-02T12:45:29;13.20;99.90
3860;DHT22;1945;52.036;8.614;2024-03-02T12:47:59;13.20;99.90
3860;DHT22;1945;52.036;8.614;2024-03-02T12:50:26;13.40;99.90
3860;DHT22;1945;52.036;8.614;2024-03-02T12:52:53;13.40;99.90
3860;DHT22;1945;52.036;8.614;2024-03-02T12:55:21;13.50;99.90
3860;DHT22;1945;52.036;8.614;2024-03-02T12:57:49;13.50;99.90
3860;DHT22;1945;52.036;8.614;2024-03-02T13:00:18;13.40;99.90
3860;DHT22;1945;52.036;8.614;2024-03-02T13:02:46;13.30;99.90
3860;DHT22;1945;52.036;8.614;2024-03-02T13:05:14;13.40;99.90
3860;DHT22;1945;52.036;8.614;2024-03-02T13:07:41;13.40;99.90
3860;DHT22;1945;52.036;8.614;2024-03-02T13:10:08;13.40;99.90
3860;DHT22;1945;52.036;8.614;2024-03-02T13:12:35;13.40;99.90
3860;DHT22;1945;52.036;8.614;2024-03-02T13:15:03;13.40;99.90
3860;DHT22;1945;52.036;8.614;2024-03-02T13:17:30;13.40;99.90
3860;DHT22;1945;52.036;8.614;2024-03-02T13:19:59;13.40;99.90
3860;DHT22;1945;52.036;8.614;2024-03-02T13:22:27;13.50;99.90
3860;DHT22;1945;52.036;8.614;2024-03-02T13:24:54;13.50;99.90
3860;DHT22;1945;52.036;8.614;2024-03-02T13:27:20;13.50;99.90
3860;DHT22;1945;52.036;8.614;2024-03-02T13:29:47;13.50;99.90
3860;DHT22;1945;52.036;8.614;2024-03-02T13:32:15;13.60;99.90
3860;DHT22;1945;52.036;8.614;2024-03-02T13:34:49;13.60;99.90
3860;DHT22;1945;52.036;8.614;2024-03-02T13:37:16;13.60;99.90
3860;DHT22;1945;52.036;8.614;2024-03-02T13:39:44;13.60;99.90
3860;DHT22;1945;52.036;8.614;2024-03-02T13:42:11;13.70;99.90
3860;DHT22;1945;52.036;8.614;2024-03-02T13:44:40;13.70;99.90
3860;DHT22;1945;52.036;8.614;2024-03-02T13:47:07;13.80;99.90
3860;DHT22;1945;52.036;8.614;2024-03-02T13:49:34;13.90;99.90
3860;DHT22;1945;52.036;8.614;2024-03-02T13:52:03;13.90;99.90
3860;DHT22;1945;52.036;8.614;2024-03-02T13:54:37;13.90;99.90
3860;DHT22;1945;52.036;8.614;2024-03-02T13:57:05;13.80;99.90
3860;DHT22;1945;52.036;8.614;2024-03-02T13:59:32;13.90;99.90
3860;DHT22;1945;52.036;8.614;2024-03-02T14:01:59;14.00;99.90
3860;DHT22;1945;52.036;8.614;2024-03-02T14:04:25;14.10;99.90
3860;DHT22;1945;52.036;8.614;2024-03-02T14:06:52;14.10;99.90
3860;DHT22;1945;52.036;8.614;2024-03-02T14:09:19;14.20;99.90
3860;DHT22;1945;52.036;8.614;2024-03-02T14:11:46;14.40;99.90
3860;DHT22;1945;52.036;8.614;2024-03-02T14:14:16;14.40;99.90
3860;DHT22;1945;52.036;8.614;2024-03-02T14:16:43;14.30;99.90
3860;DHT22;1945;52.036;8.614;2024-03-02T14:19:10;14.30;99.90
3860;DHT22;1945;52.036;8.614;2024-03-02T14:21:37;14.30;99.90
3860;DHT22;1945;52.036;8.614;2024-03-02T14:24:04;14.30;99.90
3860;DHT22;1945;52.036;8.614;2024-03-02T14:26:32;14.20;99.90
3860;DHT22;1945;52.036;8.614;2024-03-02T14:28:58;14.10;99.90
3860;DHT22;1945;52.036;8.614;2024-03-02T14:31:28;14.10;99.90
3860;DHT22;1945;52.036;8.614;2024-03-02T14:33:54;14.10;99.90
3860;DHT22;1945;52.036;8.614;2024-03-02T14:36:21;14.10;99.90
3860;DHT22;1945;52.036;8.614;2024-03-02T14:38:48;14.00;99.90
3860;DHT22;1945;52.036;8.614;2024-03-02T14:41:15;14.00;99.90
3860;DHT22;1945;52.036;8.614;2024-03-02T14:43:42;14.00;99.90
3860;DHT22;1945;52.036;8.614;2024-03-02T14:46:08;13.90;99.90
3860;DHT22;1945;52.036;8.614;2024-03-02T14:48:37;13.80;99.90
3860;DHT22;1945;52.036;8.614;2024-03-02T14:51:04;13.90;99.90
3860;DHT22;1945;52.036;8.614;2024-03-02T14:53:31;13.90;99.90
3860;DHT22;1945;52.036;8.614;2024-03-02T14:55:57;13.80;99.90
3860;DHT22;1945;52.036;8.614;2024-03-02T14:58:24;13.80;99.90
3860;DHT22;1945;52.036;8.614;2024-03-02T15:00:52;13.80;99.90
3860;DHT22;1945;52.036;8.614;2024-03-02T15:03:18;13.90;99.90
3860;DHT22;1945;52.036;8.614;2024-03-02T15:05:46;13.80;99.90
3860;DHT22;1945;52.036;8.614;2024-03-02T15:08:17;13.90;99.90
3860;DHT22;1945;52.036;8.614;2024-03-02T15:10:43;13.90;99.90
3860;DHT22;1945;52.036;8.614;2024-03-02T15:13:10;13.80;99.90
3860;DHT22;1945;52.036;8.614;2024-03-02T15:15:37;13.80;99.90
3860;DHT22;1945;52.036;8.614;2024-03-02T15:18:04;13.80;99.90
3860;DHT22;1945;52.036;8.614;2024-03-02T15:20:31;13.70;99.90
3860;DHT22;1945;52.036;8.614;2024-03-02T15:22:59;13.70;99.90
3860;DHT22;1945;52.036;8.614;2024-03-02T15:25:26;13.60;99.90
3860;DHT22;1945;52.036;8.614;2024-03-02T15:27:52;13.60;99.90
3860;DHT22;1945;52.036;8.614;2024-03-02T15:30:19;13.60;99.90
3860;DHT22;1945;52.036;8.614;2024-03-02T15:32:46;13.60;99.90
3860;DHT22;1945;52.036;8.614;2024-03-02T15:35:12;13.60;99.90
3860;DHT22;1945;52.036;8.614;2024-03-02T15:37:39;13.50;99.90
3860;DHT22;1945;52.036;8.614;2024-03-02T15:40:08;13.40;99.90
3860;DHT22;1945;52.036;8.614;2024-03-02T15:42:36;13.40;99.90
3860;DHT22;1945;52.036;8.614;2024-03-02T15:45:03;13.40;99.90
3860;DHT22;1945;52.036;8.614;2024-03-02T15:47:30;13.30;99.90
3860;DHT22;1945;52.036;8.614;2024-03-02T15:49:57;13.20;99.90
3860;DHT22;1945;52.036;8.614;2024-03-02T15:52:24;13.20;99.90
3860;DHT22;1945;52.036;8.614;2024-03-02T15:54:50;13.20;99.90
3860;DHT22;1945;52.036;8.614;2024-03-02T15:57:19;13.10;99.90
3860;DHT22;1945;52.036;8.614;2024-03-02T15:59:48;13.10;99.90
3860;DHT22;1945;52.036;8.614;2024-03-02T16:02:15;13.00;99.90
3860;DHT22;1945;52.036;8.614;2024-03-02T16:04:42;12.90;99.90
3860;DHT22;1945;52.036;8.614;2024-03-02T16:07:08;12.80;99.90
3860;DHT22;1945;52.036;8.614;2024-03-02T16:09:35;12.80;99.90
3860;DHT22;1945;52.036;8.614;2024-03-02T16:12:02;12.80;99.90
3860;DHT22;1945;52.036;8.614;2024-03-02T16:14:30;12.70;99.90
3860;DHT22;1945;52.036;8.614;2024-03-02T16:16:57;12.70;99.90
3860;DHT22;1945;52.036;8.614;2024-03-02T16:19:23;12.60;99.90
3860;DHT22;1945;52.036;8.614;2024-03-02T16:21:50;12.50;99.90